Time;durP1;ratioP1;P1;durP2;ratioP2;P2;SDS_P1;SDS_P2;PMS_P1;PMS_P2;Temp;Humidity;BMP_temperature;BMP_pressure;BME280_temperature;BME280_humidity;BME280_pressure;Samples;Min_cycle;Max_cycle;Signal;HPM_P1;HPM_P2
2024/01/03 00:02:26;;;;;;;41.80;7.97;;;11.80;99.90;;;12.04;96.69;98462.38;4837012;29;20454;-65
2024/01/03 00:04:54;;;;;;;43.38;8.55;;;11.80;99.90;;;12.01;96.81;98456.38;4822916;29;20042;-65
2024/01/03 00:07:22;;;;;;;43.65;9.18;;;11.80;99.90;;;12.06;96.51;98460.50;4823239;29;20509;-66
2024/01/03 00:09:58;;;;;;;36.72;8.55;;;11.80;99.90;;;12.08;96.21;98463.94;4823275;29;20524;-65
2024/01/03 00:12:28;;;;;;;37.92;8.23;;;11.90;99.90;;;12.16;95.84;98492.72;4822721;29;20051;-65
2024/01/03 00:14:56;;;;;;;42.38;8.50;;;11.90;99.90;;;12.02;95.30;98468.72;4823439;29;20146;-65
2024/01/03 00:17:25;;;;;;;39.50;8.82;;;11.90;99.90;;;12.04;95.38;98451.78;4822705;29;20054;-64
2024/01/03 00:19:56;;;;;;;41.22;9.25;;;11.90;99.90;;;12.11;95.45;98490.31;4822854;29;20053;-65
2024/01/03 00:22:26;;;;;;;45.45;9.18;;;11.90;99.90;;;12.16;95.31;98496.22;4822758;29;20133;-66
2024/01/03 00:25:10;;;;;;;34.53;8.52;;;11.90;99.90;;;12.12;95.13;98485.84;4823018;29;20046;-65
2024/01/03 00:27:39;;;;;;;35.35;8.98;;;11.90;99.90;;;12.14;95.25;98497.22;4822880;29;20504;-65
2024/01/03 00:30:10;;;;;;;35.08;9.35;;;11.90;99.90;;;12.09;95.48;98513.38;4822243;29;20461;-65
2024/01/03 00:32:39;;;;;;;45.58;8.23;;;11.90;99.90;;;12.20;95.36;98508.41;4822689;29;20099;-64
2024/01/03 00:35:18;;;;;;;34.67;8.20;;;12.00;99.90;;;12.16;95.84;98496.22;4821273;29;20060;-65
2024/01/03 00:37:47;;;;;;;41.83;8.85;;;12.00;99.90;;;12.13;96.14;98498.19;4822618;29;20046;-65
2024/01/03 00:40:52;;;;;;;51.40;9.35;;;11.90;99.90;;;12.21;96.87;98509.28;4821594;29;20061;-65
2024/01/03 00:43:20;;;;;;;41.13;8.65;;;12.00;99.90;;;12.14;97.12;98515.78;4822325;29;20051;-65
2024/01/03 00:45:50;;;;;;;46.13;9.23;;;11.90;99.90;;;12.12;97.09;98531.75;4822488;29;20453;-65
2024/01/03 00:48:19;;;;;;;43.85;8.82;;;11.90;99.90;;;12.10;97.34;98504.47;4836573;29;20138;-66
2024/01/03 00:50:48;;;;;;;36.47;9.07;;;11.90;99.90;;;11.97;97.30;98513.09;4821304;29;20083;-66
2024/01/03 00:53:17;;;;;;;39.17;9.10;;;11.90;99.90;;;12.11;96.79;98543.31;4822434;29;20055;-66
2024/01/03 00:55:47;;;;;;;41.63;9.00;;;11.90;99.90;;;12.11;96.17;98530.06;4822266;29;20057;-66
2024/01/03 00:58:16;;;;;;;39.47;9.07;;;11.90;99.90;;;12.17;96.59;98543.00;4822439;29;20111;-67
2024/01/03 01:00:44;;;;;;;43.00;9.52;;;11.90;99.90;;;12.11;96.28;98547.75;4836729;29;20110;-66
2024/01/03 01:03:13;;;;;;;46.15;9.70;;;11.90;99.90;;;12.16;96.24;98529.81;4822378;29;20065;-66
2024/01/03 01:05:43;;;;;;;43.42;9.18;;;11.90;99.90;;;12.20;95.94;98542.84;4822160;29;20057;-65
2024/01/03 01:08:11;;;;;;;43.60;9.05;;;11.90;99.90;;;12.08;95.78;98543.44;4836176;29;20065;-67
2024/01/03 01:10:40;;;;;;;44.17;9.52;;;11.90;99.90;;;12.10;95.60;98541.56;4835987;29;20046;-64
2024/01/03 01:13:10;;;;;;;53.03;9.65;;;11.90;99.90;;;12.15;95.55;98565.22;4822112;29;20047;-65
2024/01/03 01:15:38;;;;;;;53.43;9.77;;;11.90;99.90;;;12.29;95.39;98576.84;4821034;29;20398;-66
2024/01/03 01:18:06;;;;;;;36.25;8.85;;;12.00;99.90;;;12.25;95.56;98580.59;4822162;29;20728;-67
2024/01/03 01:20:35;;;;;;;38.97;8.80;;;12.00;99.90;;;12.21;94.96;98584.34;4835778;29;20046;-65
2024/01/03 01:23:04;;;;;;;45.20;9.00;;;12.00;99.90;;;12.12;94.67;98550.31;4822005;29;20046;-66
2024/01/03 01:25:33;;;;;;;48.78;9.38;;;12.00;99.90;;;12.08;94.60;98580.53;4835567;29;20065;-65
2024/01/03 01:28:01;;;;;;;38.08;9.38;;;11.90;99.90;;;12.16;94.22;98604.88;4822013;29;20054;-66
2024/01/03 01:30:31;;;;;;;47.30;9.13;;;11.90;99.90;;;12.02;94.33;98578.16;4820612;29;20043;-66
2024/01/03 01:33:00;;;;;;;49.30;9.15;;;11.90;99.90;;;12.20;94.38;98589.69;4821801;29;20080;-66
2024/01/03 01:35:28;;;;;;;39.53;9.38;;;12.00;99.90;;;12.01;94.40;98578.25;4835861;29;20142;-66
2024/01/03 01:37:56;;;;;;;43.47;10.40;;;11.90;99.90;;;12.12;94.65;98589.19;4835518;29;20059;-66
2024/01/03 01:40:25;;;;;;;42.67;9.30;;;11.90;99.90;;;12.16;94.33;98610.19;4821889;29;20060;-66
2024/01/03 01:42:53;;;;;;;41.45;8.50;;;12.00;99.90;;;12.15;94.10;98605.81;4838696;29;20145;-67
2024/01/03 01:45:22;;;;;;;42.33;9.32;;;11.90;99.90;;;12.14;93.65;98621.78;4825293;29;20445;-66
2024/01/03 01:47:53;;;;;;;38.10;8.80;;;11.90;99.90;;;12.17;93.57;98598.66;4839211;29;20050;-67
2024/01/03 01:50:21;;;;;;;40.80;9.68;;;12.00;99.90;;;12.15;93.84;98637.63;4825311;29;20053;-67
2024/01/03 01:52:51;;;;;;;36.63;8.48;;;11.90;99.90;;;12.13;93.59;98625.38;4825059;29;20064;-66
2024/01/03 01:55:20;;;;;;;39.73;8.57;;;11.90;99.90;;;12.20;93.47;98627.66;4825166;29;20458;-67
2024/01/03 01:57:51;;;;;;;36.75;8.32;;;12.00;99.90;;;12.22;93.50;98640.81;4825124;29;20472;-67
2024/01/03 02:00:20;;;;;;;;;;;12.00;99.90;;;12.26;93.43;98634.47;4839500;29;20055;-67
2024/01/03 02:02:51;;;;;;;44.38;8.98;;;12.00;99.90;;;12.25;93.89;98643.34;4824757;29;19925;-67
2024/01/03 02:05:19;;;;;;;37.78;8.65;;;12.00;99.90;;;12.19;94.10;98641.00;4838869;29;20058;-67
2024/01/03 02:07:48;;;;;;;46.33;9.00;;;12.00;99.90;;;12.22;94.71;98646.13;4824625;29;20062;-67
2024/01/03 02:10:17;;;;;;;32.90;8.40;;;12.00;99.90;;;12.12;95.29;98619.19;4824702;29;20043;-67
2024/01/03 02:12:45;;;;;;;40.75;9.10;;;11.90;99.90;;;12.22;95.57;98635.53;4824629;29;20058;-67
2024/01/03 02:15:14;;;;;;;47.67;9.10;;;11.90;99.90;;;12.09;95.52;98642.34;4824698;29;20051;-67
2024/01/03 02:17:43;;;;;;;34.50;8.63;;;11.90;99.90;;;12.14;95.15;98625.28;4824730;29;20046;-67
2024/01/03 02:20:15;;;;;;;38.20;8.80;;;11.90;99.90;;;12.13;95.28;98641.25;4824884;29;20050;-66
2024/01/03 02:22:45;;;;;;;37.67;9.18;;;11.90;99.90;;;12.19;95.03;98644.50;4824811;29;20060;-67
2024/01/03 02:25:14;;;;;;;35.67;8.80;;;11.90;99.90;;;12.12;94.82;98655.44;4824540;29;20531;-67
2024/01/03 02:27:42;;;;;;;43.03;9.43;;;11.90;99.90;;;12.10;95.21;98652.84;4838684;29;20141;-67
2024/01/03 02:30:12;;;;;;;33.67;8.02;;;11.90;99.90;;;12.18;95.24;98642.78;4838515;29;20054;-67
2024/01/03 02:32:40;;;;;;;46.55;8.93;;;11.90;99.90;;;12.16;95.31;98647.28;4824371;29;20055;-67
2024/01/03 02:35:09;;;;;;;37.53;8.23;;;11.90;99.90;;;12.11;95.59;98633.41;4824581;29;20049;-66
2024/01/03 02:37:38;;;;;;;42.38;8.68;;;11.90;99.90;;;12.22;95.23;98643.47;4824233;29;20057;-66
2024/01/03 02:40:09;;;;;;;38.33;8.52;;;12.00;99.90;;;12.15;95.48;98644.69;4824628;29;20066;-66
2024/01/03 02:42:38;;;;;;;46.75;8.70;;;11.90;99.90;;;12.14;95.75;98653.56;4824190;29;20054;-67
2024/01/03 02:45:08;;;;;;;40.30;9.25;;;11.90;99.90;;;12.13;95.98;98663.34;4824195;29;20082;-67
2024/01/03 02:47:37;;;;;;;35.50;9.00;;;11.90;99.90;;;12.11;95.92;98656.38;4824093;29;20137;-67
2024/01/03 02:50:08;;;;;;;47.58;9.25;;;11.90;99.90;;;12.19;95.81;98686.91;4824013;29;20103;-67
2024/01/03 02:52:36;;;;;;;44.15;9.32;;;11.90;99.90;;;12.13;95.98;98665.13;4823541;29;20071;-67
2024/01/03 02:55:07;;;;;;;50.40;9.15;;;11.90;99.90;;;12.11;96.03;98666.97;4824022;29;20462;-67
2024/01/03 02:57:35;;;;;;;39.30;8.25;;;11.90;99.90;;;12.16;96.33;98667.59;4823833;29;20126;-67
2024/01/03 03:00:05;;;;;;;46.60;10.18;;;11.90;99.90;;;12.15;96.07;98669.41;4824001;29;20061;-67
2024/01/03 03:02:34;;;;;;;38.30;9.23;;;11.90;99.90;;;12.16;95.99;98663.19;4823958;29;20393;-67
2024/01/03 03:05:03;;;;;;;34.85;8.25;;;11.90;99.90;;;12.18;96.27;98660.44;4824082;29;20121;-67
2024/01/03 03:07:31;;;;;;;54.78;11.20;;;12.00;99.90;;;12.13;97.12;98665.97;4823772;29;20400;-68
2024/01/03 03:09:59;;;;;;;65.35;11.55;;;12.00;99.90;;;12.23;97.64;98661.13;4823775;29;20054;-67
2024/01/03 03:12:29;;;;;;;66.22;13.50;;;12.00;99.90;;;12.19;98.84;98654.22;4823933;29;20099;-67
2024/01/03 03:14:58;;;;;;;58.40;11.87;;;11.90;99.90;;;12.20;99.94;98675.34;4823805;29;20047;-67
2024/01/03 03:17:26;;;;;;;64.22;11.57;;;12.00;99.90;;;12.14;100.00;98654.44;4823581;29;20390;-66
2024/01/03 03:19:55;;;;;;;61.85;12.13;;;11.90;99.90;;;12.15;100.00;98658.81;4823733;29;20265;-67
2024/01/03 03:22:23;;;;;;;65.85;13.32;;;11.90;99.90;;;12.18;100.00;98668.41;4823589;29;20054;-67
2024/01/03 03:24:51;;;;;;;74.63;13.73;;;11.90;99.90;;;12.10;100.00;98662.63;4823774;29;20119;-67
2024/01/03 03:27:20;;;;;;;64.72;12.55;;;11.90;99.90;;;12.16;100.00;98679.06;4823350;29;20043;-67
2024/01/03 03:29:50;;;;;;;71.80;14.10;;;11.90;99.90;;;12.23;100.00;98675.19;4823501;29;20053;-67
2024/01/03 03:32:19;;;;;;;;;;;12.00;99.90;;;12.16;100.00;98683.50;4823973;29;20050;-66
2024/01/03 03:34:47;;;;;;;63.95;11.88;;;11.90;99.90;;;12.20;100.00;98674.50;4823463;29;20291;-67
2024/01/03 03:37:16;;;;;;;67.20;12.98;;;11.90;99.90;;;12.12;100.00;98661.59;4823596;29;20051;-67
2024/01/03 03:39:44;;;;;;;62.20;12.00;;;11.90;99.90;;;12.08;100.00;98669.78;4823303;29;20058;-67
2024/01/03 03:42:13;;;;;;;59.20;13.57;;;11.90;99.90;;;12.14;100.00;98680.06;4823349;29;20047;-66
2024/01/03 03:44:41;;;;;;;62.25;13.23;;;11.90;99.90;;;12.05;100.00;98668.13;4823456;29;20051;-66
2024/01/03 03:47:11;;;;;;;60.45;11.70;;;11.80;99.90;;;12.03;100.00;98671.75;4823382;29;20047;-67
2024/01/03 03:49:39;;;;;;;64.53;12.30;;;11.80;99.90;;;11.98;100.00;98669.31;4823151;29;20062;-67
2024/01/03 03:52:08;;;;;;;66.03;12.52;;;11.80;99.90;;;12.01;100.00;98676.25;4823295;29;20130;-67
2024/01/03 03:54:36;;;;;;;59.47;12.27;;;11.80;99.90;;;11.99;100.00;98680.78;4822962;29;20077;-67
2024/01/03 03:57:05;;;;;;;71.70;13.55;;;11.80;99.90;;;12.09;100.00;98685.59;4823254;29;20050;-67
2024/01/03 03:59:34;;;;;;;69.57;13.32;;;11.80;99.90;;;12.04;100.00;98678.78;4823318;29;20046;-67
2024/01/03 04:02:02;;;;;;;65.70;13.38;;;11.80;99.90;;;12.02;100.00;98689.44;4837099;29;20068;-68
2024/01/03 04:04:32;;;;;;;77.40;13.32;;;11.80;99.90;;;12.04;100.00;98684.09;4822269;29;20080;-67
2024/01/03 04:07:00;;;;;;;68.20;13.05;;;11.80;99.90;;;12.04;100.00;98684.94;4823063;29;20047;-67
2024/01/03 04:09:29;;;;;;;64.53;12.45;;;11.80;99.90;;;12.04;100.00;98711.41;4836943;29;20064;-67
2024/01/03 04:11:57;;;;;;;58.35;13.60;;;11.80;99.90;;;12.12;100.00;98704.00;4822861;29;20127;-67
2024/01/03 04:14:25;;;;;;;64.53;12.43;;;11.90;99.90;;;12.12;100.00;98704.00;4822848;29;20054;-67
2024/01/03 04:16:54;;;;;;;67.82;13.57;;;11.90;99.90;;;12.12;100.00;98698.69;4822702;29;20099;-67
2024/01/03 04:19:22;;;;;;;70.22;13.70;;;11.90;99.90;;;12.17;100.00;98687.91;4822819;29;20389;-67
2024/01/03 04:21:52;;;;;;;69.65;12.77;;;11.90;99.90;;;12.23;100.00;98701.69;4823144;29;20111;-67
2024/01/03 04:24:20;;;;;;;71.60;12.83;;;12.00;99.90;;;12.16;100.00;98688.81;4822752;29;20111;-67
2024/01/03 04:26:49;;;;;;;78.10;12.93;;;12.00;99.90;;;12.17;100.00;98687.91;4822581;29;20046;-67
2024/01/03 04:29:17;;;;;;;68.43;12.77;;;11.90;99.90;;;12.20;100.00;98691.25;4823067;29;20053;-66
2024/01/03 04:31:46;;;;;;;72.55;13.23;;;12.00;99.90;;;12.21;100.00;98697.44;4823117;29;20066;-68
2024/01/03 04:34:15;;;;;;;59.53;12.77;;;12.00;99.90;;;12.25;100.00;98685.75;4822730;29;20046;-67
2024/01/03 04:36:43;;;;;;;69.10;14.35;;;12.00;99.90;;;12.22;100.00;98694.69;4822829;29;20054;-67
2024/01/03 04:39:13;;;;;;;74.32;12.82;;;12.00;99.90;;;12.19;100.00;98693.97;4821289;29;20062;-67
2024/01/03 04:41:41;;;;;;;58.20;12.00;;;12.00;99.90;;;12.22;100.00;98693.84;4822704;29;20077;-67
2024/01/03 04:44:10;;;;;;;70.78;11.85;;;12.00;99.90;;;12.25;100.00;98683.09;4822445;29;20072;-66
2024/01/03 04:46:38;;;;;;;65.80;11.70;;;12.00;99.90;;;12.28;100.00;98697.06;4822362;29;20038;-67
2024/01/03 04:49:07;;;;;;;54.72;10.93;;;12.00;99.90;;;12.36;100.00;98699.38;4822344;29;20353;-67
2024/01/03 04:51:36;;;;;;;63.13;10.55;;;12.10;99.90;;;12.28;100.00;98690.91;4822713;29;20047;-66
2024/01/03 04:54:04;;;;;;;56.40;11.57;;;12.10;99.90;;;12.22;100.00;98707.09;4822389;29;20046;-66
2024/01/03 04:56:35;;;;;;;54.90;10.63;;;12.00;99.90;;;12.24;100.00;98702.56;4822712;29;20058;-66
2024/01/03 04:59:04;;;;;;;48.10;9.73;;;12.00;99.90;;;12.16;100.00;98712.66;4822502;29;20055;-66
2024/01/03 05:01:32;;;;;;;59.13;12.40;;;11.90;99.90;;;12.11;100.00;98697.00;4822460;29;20054;-67
2024/01/03 05:04:00;;;;;;;49.05;9.73;;;11.90;99.90;;;12.10;100.00;98707.66;4822121;29;20051;-67
2024/01/03 05:06:29;;;;;;;44.08;9.90;;;11.90;99.90;;;12.07;100.00;98692.75;4822027;29;20126;-67
2024/01/03 05:08:57;;;;;;;40.13;9.35;;;11.80;99.90;;;12.02;100.00;98684.13;4821988;29;20053;-67
2024/01/03 05:11:26;;;;;;;42.70;9.20;;;11.80;99.90;;;12.02;100.00;98697.38;4836146;29;20058;-68
2024/01/03 05:13:56;;;;;;;46.55;9.38;;;11.80;99.90;;;12.13;100.00;98705.72;4822085;29;20050;-67
2024/01/03 05:16:24;;;;;;;39.00;8.13;;;11.90;99.90;;;12.10;100.00;98711.16;4821886;29;20500;-66
2024/01/03 05:18:53;;;;;;;49.05;9.65;;;11.90;99.90;;;11.99;100.00;98696.66;4821955;29;20319;-67
2024/01/03 05:21:22;;;;;;;43.40;8.85;;;11.80;99.90;;;11.90;100.00;98700.59;4821819;29;20668;-66
2024/01/03 05:23:50;;;;;;;41.40;8.55;;;11.70;99.90;;;11.85;100.00;98696.41;4822126;29;20042;-67
2024/01/03 05:26:19;;;;;;;39.88;8.63;;;11.70;99.90;;;11.91;100.00;98707.59;4821932;29;20126;-67
2024/01/03 05:28:47;;;;;;;46.75;9.18;;;11.70;99.90;;;11.98;100.00;98701.09;4821862;29;20053;-67
2024/01/03 05:31:17;;;;;;;41.95;9.10;;;11.70;99.90;;;11.89;100.00;98706.81;4822136;29;20501;-67
2024/01/03 05:33:45;;;;;;;37.90;8.23;;;11.70;99.90;;;12.08;100.00;98712.16;4821768;29;20070;-67
2024/01/03 05:36:14;;;;;;;37.53;8.65;;;11.80;99.90;;;11.86;100.00;98674.31;4821759;29;20307;-66
2024/01/03 05:38:42;;;;;;;32.35;7.28;;;11.80;99.90;;;11.95;100.00;98709.19;4821779;29;20532;-67
2024/01/03 05:41:11;;;;;;;29.05;7.47;;;11.70;99.90;;;12.02;100.00;98699.19;4835760;29;20055;-69
2024/01/03 05:43:39;;;;;;;32.25;7.60;;;11.80;99.90;;;12.01;100.00;98710.69;4836008;29;20058;-66
2024/01/03 05:46:08;;;;;;;35.53;7.32;;;11.70;99.90;;;11.94;100.00;98709.28;4835779;29;20462;-66
2024/01/03 05:48:38;;;;;;;26.50;6.63;;;11.70;99.90;;;11.79;100.00;98685.19;4821539;29;20042;-67
2024/01/03 05:51:10;;;;;;;27.25;6.88;;;11.70;99.90;;;11.93;100.00;98707.53;4821592;29;20123;-67
2024/01/03 05:53:46;;;;;;;31.38;6.78;;;11.60;99.90;;;11.89;100.00;98709.47;4821844;29;20481;-68
2024/01/03 05:56:15;;;;;;;25.75;7.93;;;11.60;99.90;;;11.85;100.00;98699.94;4821590;29;20053;-66
2024/01/03 05:58:44;;;;;;;29.02;6.25;;;11.60;99.90;;;11.85;100.00;98707.00;4821495;29;20058;-67
2024/01/03 06:01:13;;;;;;;29.40;7.38;;;11.60;99.90;;;11.83;100.00;98693.00;4821920;29;20058;-68
2024/01/03 06:03:43;;;;;;;36.97;7.45;;;11.60;99.90;;;11.81;100.00;98702.81;4821516;29;20051;-67
2024/01/03 06:06:11;;;;;;;30.10;7.13;;;11.60;99.90;;;11.75;100.00;98702.13;4821813;29;20111;-66
2024/01/03 06:08:40;;;;;;;35.20;7.25;;;11.50;99.90;;;11.65;100.00;98697.28;4835325;29;20507;-66
2024/01/03 06:11:09;;;;;;;41.92;9.30;;;11.50;99.90;;;11.66;100.00;98710.47;4821404;29;20054;-68
2024/01/03 06:13:37;;;;;;;33.13;8.65;;;11.40;99.90;;;11.62;100.00;98698.25;4821641;29;20050;-67
2024/01/03 06:16:07;;;;;;;44.00;8.20;;;11.40;99.90;;;11.59;100.00;98710.78;4821436;29;20500;-67
2024/01/03 06:18:35;;;;;;;43.20;9.05;;;11.40;99.90;;;11.62;100.00;98713.28;4820441;29;20656;-66
2024/01/03 06:21:11;;;;;;;41.20;8.50;;;11.40;99.90;;;11.65;100.00;98713.16;4821267;29;20058;-66
2024/01/03 06:23:41;;;;;;;40.03;7.78;;;11.40;99.90;;;11.51;100.00;98699.66;4821454;29;20830;-66
2024/01/03 06:26:09;;;;;;;39.33;7.80;;;11.40;99.90;;;11.58;100.00;98717.84;4821323;29;20581;-67
2024/01/03 06:28:37;;;;;;;33.60;7.97;;;11.40;99.90;;;11.53;100.00;98725.16;4823402;29;20528;-67
2024/01/03 06:31:07;;;;;;;39.58;7.63;;;11.30;99.90;;;11.44;100.00;98719.38;4824485;29;20050;-68
2024/01/03 06:33:35;;;;;;;34.30;8.35;;;11.20;99.90;;;11.44;100.00;98712.28;4824461;29;20077;-66
2024/01/03 06:36:06;;;;;;;36.60;7.65;;;11.20;99.90;;;11.38;100.00;98730.22;4824334;29;20049;-66
2024/01/03 06:38:34;;;;;;;32.25;6.80;;;11.10;99.90;;;11.34;100.00;98729.47;4824436;29;20424;-67
2024/01/03 06:41:03;;;;;;;30.27;6.55;;;11.10;99.90;;;11.16;100.00;98693.22;4824477;29;20461;-66
2024/01/03 06:43:31;;;;;;;33.47;6.75;;;11.10;99.90;;;11.33;100.00;98725.13;4824231;29;20691;-67
2024/01/03 06:46:00;;;;;;;31.58;7.43;;;11.10;99.90;;;11.31;100.00;98729.59;4824501;29;20054;-65
2024/01/03 06:48:28;;;;;;;37.38;7.45;;;11.10;99.90;;;11.27;100.00;98720.06;4824028;29;20137;-66
2024/01/03 06:50:56;;;;;;;36.45;7.95;;;11.10;99.90;;;11.34;100.00;98734.75;4824367;29;20058;-66
2024/01/03 06:53:26;;;;;;;36.38;7.75;;;11.10;99.90;;;11.32;100.00;98723.41;4823995;29;20523;-67
2024/01/03 06:55:55;;;;;;;32.33;7.87;;;11.10;99.90;;;11.28;100.00;98742.97;4824099;29;20047;-66
2024/01/03 06:58:27;;;;;;;48.28;7.63;;;11.10;99.90;;;11.32;100.00;98749.88;4824081;29;20694;-67
2024/01/03 07:00:55;;;;;;;40.95;7.93;;;11.10;99.90;;;11.36;100.00;98742.66;4838354;29;20084;-66
2024/01/03 07:03:23;;;;;;;40.15;7.25;;;11.10;99.90;;;11.35;100.00;98759.44;4823802;29;20054;-67
2024/01/03 07:05:52;;;;;;;43.55;8.32;;;11.10;99.90;;;11.44;100.00;98751.16;4823791;29;20076;-66
2024/01/03 07:08:21;;;;;;;39.35;8.25;;;11.20;99.90;;;11.45;100.00;98751.06;4823777;29;20050;-68
2024/01/03 07:10:51;;;;;;;34.42;7.70;;;11.20;99.90;;;11.51;100.00;98748.19;4823855;29;20149;-66
2024/01/03 07:13:20;;;;;;;45.53;8.57;;;11.30;99.90;;;11.49;100.00;98749.16;4823857;29;20060;-67
2024/01/03 07:15:48;;;;;;;42.05;7.78;;;11.30;99.90;;;11.54;100.00;98757.75;4823584;29;20080;-67
2024/01/03 07:18:17;;;;;;;43.33;7.53;;;11.30;99.90;;;11.55;100.00;98764.78;4823663;29;20107;-66
2024/01/03 07:20:45;;;;;;;50.95;8.10;;;11.30;99.90;;;11.57;100.00;98755.00;4823634;29;20046;-66
2024/01/03 07:23:14;;;;;;;47.53;8.95;;;11.30;99.90;;;11.59;100.00;98769.88;4823733;29;20050;-66
2024/01/03 07:25:43;;;;;;;42.60;9.20;;;11.40;99.90;;;11.58;100.00;98759.34;4823499;29;20162;-66
2024/01/03 07:28:13;;;;;;;47.15;9.10;;;11.40;99.90;;;11.60;100.00;98771.59;4824007;29;20051;-66
2024/01/03 07:30:41;;;;;;;38.75;8.90;;;11.40;99.90;;;11.64;100.00;98770.56;4837337;29;20046;-67
2024/01/03 07:33:10;;;;;;;47.83;10.30;;;11.40;99.90;;;11.57;100.00;98760.28;4823880;29;20481;-72
2024/01/03 07:35:43;;;;;;;54.40;10.10;;;11.40;99.90;;;11.64;100.00;98769.69;4823628;29;20103;-67
2024/01/03 07:38:11;;;;;;;51.90;8.82;;;11.50;99.90;;;11.60;100.00;98779.53;4823268;29;20054;-67
2024/01/03 07:40:40;;;;;;;44.30;9.48;;;11.40;99.90;;;11.64;100.00;98777.63;4823362;29;20050;-67
2024/01/03 07:43:08;;;;;;;48.50;9.60;;;11.40;99.90;;;10.90;100.00;98649.31;4823252;29;20074;-66
2024/01/03 07:45:38;;;;;;;45.78;9.27;;;11.40;99.90;;;11.71;100.00;98781.78;4823515;29;20054;-66
2024/01/03 07:48:08;;;;;;;40.73;9.00;;;11.40;99.90;;;11.70;100.00;98782.69;4823291;29;20518;-66
2024/01/03 07:50:36;;;;;;;37.17;8.02;;;11.50;99.90;;;11.63;100.00;98768.81;4823094;29;20346;-66
2024/01/03 07:53:07;;;;;;;39.15;9.10;;;11.50;99.90;;;11.75;100.00;98781.56;4823144;29;20515;-66
2024/01/03 07:55:35;;;;;;;46.45;10.10;;;11.50;99.90;;;11.77;100.00;98771.78;4836993;29;20056;-66
2024/01/03 07:58:04;;;;;;;48.42;9.52;;;11.50;99.90;;;11.73;100.00;98783.41;4823081;29;20061;-67
2024/01/03 08:00:32;;;;;;;47.38;9.57;;;11.50;99.90;;;11.92;100.00;98795.88;4823153;29;20325;-66
2024/01/03 08:03:02;;;;;;;47.50;8.55;;;11.60;99.90;;;11.87;100.00;98805.81;4836994;29;20462;-66
2024/01/03 08:05:32;;;;;;;45.42;9.23;;;11.60;99.90;;;11.81;100.00;98811.38;4822928;29;20042;-66
2024/01/03 08:08:00;;;;;;;45.15;9.10;;;11.60;99.90;;;11.91;100.00;98804.75;4822857;29;20051;-67
2024/01/03 08:10:29;;;;;;;33.38;7.90;;;11.60;99.90;;;11.84;100.00;98808.59;4822797;29;20098;-67
2024/01/03 08:12:57;;;;;;;35.72;7.75;;;11.60;99.90;;;11.78;100.00;98799.13;4823048;29;20047;-66
2024/01/03 08:15:25;;;;;;;36.00;8.00;;;11.60;99.90;;;11.75;100.00;98796.59;4822681;29;20093;-67
2024/01/03 08:17:54;;;;;;;38.55;7.80;;;11.50;99.90;;;11.87;100.00;98805.81;4822582;29;20058;-67
2024/01/03 08:20:24;;;;;;;44.25;8.88;;;11.60;99.90;;;11.82;100.00;98810.44;4822643;29;20107;-68
2024/01/03 08:22:52;;;;;;;45.42;8.32;;;11.60;99.90;;;11.81;100.00;98806.94;4822710;29;20409;-68
2024/01/03 08:25:21;;;;;;;40.88;7.60;;;11.60;99.90;;;11.90;100.00;98808.34;4822793;29;20091;-68
2024/01/03 08:27:49;;;;;;;39.30;8.02;;;11.70;99.90;;;11.88;100.00;98805.75;4822751;29;20050;-69
2024/01/03 08:30:18;;;;;;;40.22;8.45;;;11.70;99.90;;;11.87;100.00;98819.03;4822434;29;20115;-69
2024/01/03 08:32:47;;;;;;;44.22;9.23;;;11.70;99.90;;;11.92;100.00;98814.44;4822737;29;20065;-69
2024/01/03 08:35:16;;;;;;;36.22;7.68;;;11.70;99.90;;;11.94;100.00;98805.50;4822541;29;20408;-71
2024/01/03 08:37:45;;;;;;;39.20;7.85;;;11.70;99.90;;;11.99;100.00;98808.81;4822752;29;20046;-70
2024/01/03 08:40:13;;;;;;;47.43;9.60;;;11.70;99.90;;;12.01;100.00;98822.84;4822781;29;20050;-71
2024/01/03 08:42:41;;;;;;;33.53;7.43;;;11.80;99.90;;;11.99;100.00;98824.69;4822481;29;20107;-72
2024/01/03 08:45:11;;;;;;;38.47;7.55;;;11.80;99.90;;;12.04;100.00;98819.22;4822438;29;20055;-65
2024/01/03 08:47:39;;;;;;;46.83;8.23;;;11.80;99.90;;;12.00;100.00;98820.28;4821023;29;20687;-69
2024/01/03 08:50:09;;;;;;;32.17;7.88;;;11.80;99.90;;;12.11;100.00;98828.59;4821736;29;20073;-68
2024/01/03 08:52:38;;;;;;;35.30;7.70;;;11.90;99.90;;;12.11;100.00;98816.22;4822358;29;20050;-68
2024/01/03 08:55:08;;;;;;;40.15;7.43;;;11.90;99.90;;;12.11;100.00;98828.59;4822267;29;20046;-67
2024/01/03 08:57:37;;;;;;;31.50;6.75;;;11.90;99.90;;;12.03;100.00;98831.59;4822137;29;20405;-68
2024/01/03 09:00:08;;;;;;;33.25;7.85;;;11.80;99.90;;;12.02;100.00;98832.50;4822332;29;20087;-69
2024/01/03 09:02:37;;;;;;;27.15;6.90;;;11.80;99.90;;;12.09;100.00;98841.06;4822193;29;20389;-68
2024/01/03 09:05:07;;;;;;;39.75;8.45;;;11.80;99.90;;;12.13;100.00;98847.94;4822170;29;20531;-68
2024/01/03 09:07:35;;;;;;;31.67;7.83;;;11.90;99.90;;;11.95;100.00;98844.31;4822158;29;20050;-68
2024/01/03 09:10:04;;;;;;;36.88;7.60;;;11.80;99.90;;;12.08;100.00;98856.09;4822112;29;20492;-71
2024/01/03 09:12:33;;;;;;;36.78;7.80;;;11.80;99.90;;;12.20;100.00;98849.41;4821997;29;20042;-69
2024/01/03 09:15:02;;;;;;;43.97;8.40;;;11.90;99.90;;;12.06;100.00;98857.09;4821964;29;20042;-71
2024/01/03 09:17:30;;;;;;;40.20;8.07;;;11.90;99.90;;;12.06;100.00;98862.41;4822010;29;20050;-70
2024/01/03 09:19:59;;;;;;;35.67;8.18;;;11.80;99.90;;;11.97;100.00;98865.41;4821962;29;20126;-69
2024/01/03 09:22:27;;;;;;;40.42;7.40;;;11.80;99.90;;;11.99;100.00;98871.50;4821965;29;20069;-68
2024/01/03 09:24:56;;;;;;;35.08;9.25;;;11.80;99.90;;;11.97;100.00;98870.72;4821860;29;20125;-68
2024/01/03 09:27:24;;;;;;;35.13;7.93;;;11.70;99.90;;;11.97;100.00;98868.94;4822031;29;20054;-68
2024/01/03 09:29:54;;;;;;;44.08;8.70;;;11.80;99.90;;;11.93;100.00;98883.22;4821783;29;20102;-69
2024/01/03 09:32:23;;;;;;;39.20;9.38;;;11.70;99.90;;;11.92;100.00;98889.47;4821831;29;20046;-69
2024/01/03 09:34:51;;;;;;;32.10;6.97;;;11.70;99.90;;;11.86;100.00;98868.53;4822353;29;20564;-72
2024/01/03 09:37:20;;;;;;;36.40;7.95;;;11.60;99.90;;;11.86;100.00;98875.63;4821821;29;20059;-69
2024/01/03 09:39:48;;;;;;;40.45;8.88;;;11.60;99.90;;;11.93;100.00;98883.22;4821767;29;20054;-70
2024/01/03 09:42:17;;;;;;;34.95;7.85;;;11.70;99.90;;;11.95;100.00;98880.50;4821780;29;20103;-70
2024/01/03 09:44:48;;;;;;;40.40;7.72;;;11.70;99.90;;;12.04;100.00;98877.50;4821870;29;20448;-70
2024/01/03 09:47:20;;;;;;;45.93;8.53;;;11.80;99.90;;;12.05;100.00;98888.03;4821755;29;20077;-70
2024/01/03 09:49:50;;;;;;;33.45;7.55;;;11.80;99.90;;;12.17;100.00;98886.66;4821611;29;20046;-70
2024/01/03 09:52:19;;;;;;;40.35;8.25;;;11.90;99.90;;;11.65;100.00;98804.06;4821658;29;20082;-70
2024/01/03 09:54:48;;;;;;;39.38;8.63;;;11.90;99.90;;;12.05;100.00;98890.69;4821556;29;20107;-75
2024/01/03 09:57:18;;;;;;;37.10;7.68;;;11.90;99.90;;;12.12;100.00;98910.69;4821727;29;20058;-70
2024/01/03 09:59:47;;;;;;;39.75;7.80;;;11.90;99.90;;;12.23;100.00;98903.13;4835687;29;20062;-70
2024/01/03 10:02:16;;;;;;;40.95;8.95;;;12.00;99.90;;;12.30;100.00;98890.50;4821787;29;20034;-70
2024/01/03 10:04:48;;;;;;;38.17;8.23;;;12.00;99.90;;;12.34;100.00;98878.81;4825016;29;20076;-70
2024/01/03 10:07:16;;;;;;;41.35;8.60;;;12.10;99.90;;;12.32;100.00;98888.63;4824748;29;20133;-70
2024/01/03 10:09:45;;;;;;;43.42;9.93;;;12.10;99.90;;;12.34;100.00;98897.38;4824735;29;20069;-69
2024/01/03 10:12:18;;;;;;;38.38;7.88;;;12.10;99.90;;;12.32;100.00;98904.53;4824635;29;20054;-69
2024/01/03 10:14:47;;;;;;;29.65;7.60;;;12.10;99.90;;;12.40;100.00;98899.78;4823607;29;20057;-69
2024/01/03 10:17:17;;;;;;;39.38;8.00;;;12.20;99.90;;;12.48;100.00;98908.25;4824652;29;20046;-69